X  ZavřítMETAR data      LKPD Pardubice

Teplota

21°C Teplota

14°C Rosný bod

64% Vlhkost



Vítr

 8 KM/H

 5 MPH

 2 M/S

 4 KTS



270°
Západní směr
Současné podmínky

Jasno Jasno
Tlak vzduchu 1011.92 (hPa) - 29.88 (in)
Dohlednost 6.2 (mi) - 10 (km)
Letiště
Kód letiště LKPD

Lokace Pardubice 80 (km)

Metar:
LKPD 190100Z 27004KT CAVOK 21/14 Q1012 RMK BLU

Čas: 19-08-2019 03:00